Time;durP1;ratioP1;P1;durP2;ratioP2;P2;SDS_P1;SDS_P2;PMS_P1;PMS_P2;Temp;Humidity;BMP_temperature;BMP_pressure;BME280_temperature;BME280_humidity;BME280_pressure;Samples;Min_cycle;Max_cycle;Signal;HPM_P1;HPM_P2
2022/10/13 00:01:51;;;;;;;51.25;27.70;;;12.10;99.90;;;;;;4839637;29;19935;-53
2022/10/13 00:04:18;;;;;;;;;;;12.10;99.90;;;;;;4835894;29;20046;-57
2022/10/13 00:06:45;;;;;;;41.60;22.63;;;12.00;99.90;;;;;;4835851;29;19927;-53
2022/10/13 00:09:12;;;;;;;45.13;28.23;;;12.00;99.90;;;;;;4837468;29;20049;-51
2022/10/13 00:11:39;;;;;;;;;;;12.00;99.90;;;;;;4845879;29;20163;-55
2022/10/13 00:14:06;;;;;;;37.58;21.63;;;11.90;99.90;;;;;;4833483;29;19971;-55
2022/10/13 00:16:34;;;;;;;40.15;25.23;;;11.80;99.90;;;;;;4841630;29;20041;-56
2022/10/13 00:19:01;;;;;;;44.58;22.95;;;11.80;99.90;;;;;;4839984;29;20564;-55
2022/10/13 00:21:27;;;;;;;;;;;11.70;99.90;;;;;;4836415;29;20046;-58
2022/10/13 00:23:54;;;;;;;46.92;26.70;;;11.60;99.90;;;;;;4837876;29;19955;-54
2022/10/13 00:26:23;;;;;;;32.88;21.02;;;11.60;99.90;;;;;;4841959;29;20625;-55
2022/10/13 00:28:50;;;;;;;43.63;25.15;;;11.50;99.90;;;;;;4824938;29;20525;-53
2022/10/13 00:31:23;;;;;;;45.33;25.50;;;11.40;99.90;;;;;;4841647;29;20137;-54
2022/10/13 00:33:51;;;;;;;45.83;26.20;;;11.30;99.90;;;;;;4841174;29;20477;-53
2022/10/13 00:36:20;;;;;;;40.13;26.55;;;11.20;99.90;;;;;;4843721;29;20062;-54
2022/10/13 00:38:47;;;;;;;55.75;29.60;;;11.10;99.90;;;;;;4836782;29;20057;-56
2022/10/13 00:41:14;;;;;;;46.58;27.88;;;11.00;99.90;;;;;;4837709;29;20045;-56
2022/10/13 00:43:49;;;;;;;40.42;25.60;;;11.00;99.90;;;;;;4840632;29;20461;-50
2022/10/13 00:46:18;;;;;;;52.88;28.17;;;10.90;99.90;;;;;;4839385;29;20064;-50
2022/10/13 00:48:47;;;;;;;49.65;28.77;;;10.80;99.90;;;;;;4833130;29;20085;-52
2022/10/13 00:51:16;;;;;;;46.80;27.33;;;10.80;99.90;;;;;;4836448;29;20054;-57
2022/10/13 00:53:46;;;;;;;39.05;23.50;;;10.70;99.90;;;;;;4841712;29;20332;-53
2022/10/13 00:56:17;;;;;;;35.25;22.25;;;10.70;99.90;;;;;;4838405;29;20692;-53
2022/10/13 00:58:47;;;;;;;43.30;24.33;;;10.70;99.90;;;;;;4834295;29;20069;-58
2022/10/13 01:01:15;;;;;;;39.05;21.52;;;10.70;99.90;;;;;;4837484;29;20625;-55
2022/10/13 01:03:42;;;;;;;29.88;19.92;;;10.70;99.90;;;;;;4834926;29;20057;-54
2022/10/13 01:06:09;;;;;;;28.67;18.20;;;10.70;99.90;;;;;;4837683;29;20124;-55
2022/10/13 01:08:36;;;;;;;30.45;17.42;;;10.70;99.90;;;;;;4839148;29;20527;-55
2022/10/13 01:11:14;;;;;;;24.33;15.20;;;10.70;99.90;;;;;;4834844;29;20068;-55
2022/10/13 01:14:13;;;;;;;25.50;16.80;;;10.70;99.90;;;;;;4838926;29;20497;-53
2022/10/13 01:17:17;;;;;;;26.52;17.60;;;10.70;99.90;;;;;;4834034;29;20263;-55
2022/10/13 01:20:00;;;;;;;28.77;17.00;;;10.70;99.90;;;;;;4834535;29;20122;-52
2022/10/13 01:22:33;;;;;;;27.58;17.90;;;10.80;99.90;;;;;;4838150;29;20361;-52
2022/10/13 01:25:27;;;;;;;26.13;16.45;;;10.80;99.90;;;;;;4840207;29;20057;-52
2022/10/13 01:28:28;;;;;;;30.05;20.63;;;10.80;99.90;;;;;;4837246;29;20070;-55
2022/10/13 01:31:05;;;;;;;27.38;16.33;;;10.80;99.90;;;;;;4819599;29;20070;-54
2022/10/13 01:33:47;;;;;;;26.50;17.90;;;10.90;99.90;;;;;;4838182;29;20053;-52
2022/10/13 01:36:31;;;;;;;29.85;16.77;;;10.90;99.90;;;;;;4832615;29;20057;-56
2022/10/13 01:39:22;;;;;;;29.48;17.58;;;10.90;99.90;;;;;;4837647;29;20050;-54
2022/10/13 01:41:53;;;;;;;24.33;15.25;;;10.90;99.90;;;;;;4838462;29;20050;-55
2022/10/13 01:44:30;;;;;;;23.67;14.98;;;11.00;99.90;;;;;;4839246;29;20045;-54
2022/10/13 01:47:00;;;;;;;25.42;15.18;;;11.00;99.90;;;;;;4838373;29;20049;-56
2022/10/13 01:49:32;;;;;;;24.10;15.30;;;11.00;99.90;;;;;;4838195;29;20049;-55
2022/10/13 01:52:03;;;;;;;27.40;16.98;;;11.00;99.90;;;;;;4838805;29;20050;-57
2022/10/13 01:54:32;;;;;;;28.60;16.00;;;11.00;99.90;;;;;;4839923;29;20045;-55
2022/10/13 01:56:59;;;;;;;31.15;15.82;;;11.00;99.90;;;;;;4835476;29;20042;-55
2022/10/13 01:59:28;;;;;;;19.65;14.13;;;11.00;99.90;;;;;;4838905;29;20050;-56
2022/10/13 02:01:57;;;;;;;25.17;13.93;;;11.00;99.90;;;;;;4838664;29;20062;-52
2022/10/13 02:04:42;;;;;;;28.42;15.45;;;11.00;99.90;;;;;;4836204;29;20528;-54
2022/10/13 02:07:22;;;;;;;26.80;15.23;;;10.90;99.90;;;;;;4833638;29;20501;-54
2022/10/13 02:10:09;;;;;;;21.92;14.65;;;10.90;99.90;;;;;;4834159;29;20513;-55
2022/10/13 02:12:46;;;;;;;27.33;14.65;;;10.90;99.90;;;;;;4836742;29;20133;-55
2022/10/13 02:15:18;;;;;;;22.92;14.40;;;10.90;99.90;;;;;;4840633;29;20073;-54
2022/10/13 02:17:44;;;;;;;27.95;16.67;;;10.80;99.90;;;;;;4839767;29;20586;-53
2022/10/13 02:20:14;;;;;;;31.33;17.98;;;10.70;99.90;;;;;;4824662;29;20091;-52
2022/10/13 02:22:45;;;;;;;23.10;14.95;;;10.60;99.90;;;;;;4839232;29;20041;-55
2022/10/13 02:25:11;;;;;;;17.52;13.25;;;10.60;99.90;;;;;;4839208;29;20379;-54
2022/10/13 02:27:38;;;;;;;;;;;10.50;99.90;;;;;;4836003;29;20050;-59
2022/10/13 02:30:05;;;;;;;18.73;13.65;;;10.50;99.90;;;;;;4838715;29;19928;-54
2022/10/13 02:32:32;;;;;;;23.77;13.57;;;10.40;99.90;;;;;;4830053;29;20177;-56
2022/10/13 02:34:59;;;;;;;;;;;10.30;99.90;;;;;;4835658;29;20073;-52
2022/10/13 02:37:26;;;;;;;17.67;12.77;;;10.30;99.90;;;;;;4837434;29;20368;-53
2022/10/13 02:39:52;;;;;;;;;;;10.20;99.90;;;;;;4831350;29;20046;-54
2022/10/13 02:42:19;;;;;;;34.47;14.23;;;10.20;99.90;;;;;;4836750;29;20422;-55
2022/10/13 02:44:46;;;;;;;28.27;17.02;;;10.10;99.90;;;;;;4843160;29;20041;-57
2022/10/13 02:47:13;;;;;;;24.75;16.17;;;10.10;99.90;;;;;;4839101;29;20042;-55
2022/10/13 02:49:40;;;;;;;;;;;10.00;99.90;;;;;;4846255;29;20049;-52
2022/10/13 02:52:07;;;;;;;29.08;16.48;;;10.00;99.90;;;;;;4844200;29;19938;-58
2022/10/13 02:54:40;;;;;;;29.90;17.73;;;9.90;99.90;;;;;;4840111;29;20085;-60
2022/10/13 02:57:07;;;;;;;32.88;17.63;;;9.90;99.90;;;;;;4846660;29;20953;-57
2022/10/13 02:59:34;;;;;;;31.70;16.27;;;9.90;99.90;;;;;;4847411;29;20054;-58
2022/10/13 03:02:00;;;;;;;;;;;9.90;99.90;;;;;;4822859;29;20441;-58
2022/10/13 03:04:27;;;;;;;23.27;15.50;;;9.90;99.90;;;;;;4835801;29;19963;-55
2022/10/13 03:06:56;;;;;;;23.88;16.10;;;9.90;99.90;;;;;;4834723;29;20033;-54
2022/10/13 03:09:22;;;;;;;;;;;10.00;99.90;;;;;;4833932;29;20052;-54
2022/10/13 03:11:49;;;;;;;23.75;15.38;;;10.00;99.90;;;;;;4832687;29;20413;-58
2022/10/13 03:14:16;;;;;;;24.58;14.50;;;10.10;99.90;;;;;;4830707;29;20053;-55
2022/10/13 03:16:42;;;;;;;;;;;10.10;99.90;;;;;;4835658;29;20747;-53
2022/10/13 03:19:09;;;;;;;23.45;14.85;;;10.10;99.90;;;;;;4840581;29;20173;-52
2022/10/13 03:21:37;;;;;;;28.35;17.00;;;10.10;99.90;;;;;;4840296;29;20166;-56
2022/10/13 03:24:05;;;;;;;24.40;14.82;;;10.10;99.90;;;;;;4837550;29;20484;-56
2022/10/13 03:26:33;;;;;;;26.83;16.48;;;10.20;99.90;;;;;;4835053;29;20110;-55
2022/10/13 03:29:00;;;;;;;22.38;15.27;;;10.20;99.90;;;;;;4830958;29;20061;-56
2022/10/13 03:31:27;;;;;;;25.92;16.60;;;10.30;99.90;;;;;;4833869;29;20495;-53
2022/10/13 03:34:00;;;;;;;24.67;15.35;;;10.30;99.90;;;;;;4834162;29;20505;-56
2022/10/13 03:36:27;;;;;;;22.95;15.80;;;10.30;99.90;;;;;;4839840;29;20072;-55
2022/10/13 03:38:54;;;;;;;22.02;15.23;;;10.30;99.90;;;;;;4840678;29;20259;-53
2022/10/13 03:41:21;;;;;;;23.25;14.68;;;10.30;99.90;;;;;;4840242;29;20455;-55
2022/10/13 03:43:51;;;;;;;26.08;15.32;;;10.30;99.90;;;;;;4841574;29;20393;-55
2022/10/13 03:46:18;;;;;;;21.92;14.55;;;10.40;99.90;;;;;;4842736;29;20068;-62
2022/10/13 03:48:46;;;;;;;26.65;15.68;;;10.40;99.90;;;;;;4843120;29;20065;-55
2022/10/13 03:51:18;;;;;;;20.83;12.77;;;10.40;99.90;;;;;;4843588;29;20128;-58
2022/10/13 03:53:46;;;;;;;22.60;14.63;;;10.40;99.90;;;;;;4843756;29;20064;-57
2022/10/13 03:56:18;;;;;;;31.63;17.02;;;10.40;99.90;;;;;;4846593;29;20510;-58
2022/10/13 03:58:54;;;;;;;25.65;16.10;;;10.40;99.90;;;;;;4845488;29;20519;-53
2022/10/13 04:01:23;;;;;;;25.30;14.65;;;10.40;99.90;;;;;;4840718;29;20049;-58
2022/10/13 04:03:53;;;;;;;23.38;13.63;;;10.40;99.90;;;;;;4839920;29;20044;-54
2022/10/13 04:06:20;;;;;;;18.75;12.65;;;10.40;99.90;;;;;;4841783;29;20046;-60
2022/10/13 04:08:47;;;;;;;20.40;12.38;;;10.40;99.90;;;;;;4840348;29;20084;-56
2022/10/13 04:11:15;;;;;;;19.65;13.77;;;10.50;99.90;;;;;;4840831;29;20445;-56
2022/10/13 04:13:44;;;;;;;17.23;12.65;;;10.50;99.90;;;;;;4843274;29;20056;-60
2022/10/13 04:16:16;;;;;;;24.25;15.25;;;10.50;99.90;;;;;;4834008;29;20071;-55
2022/10/13 04:18:44;;;;;;;27.17;15.70;;;10.50;99.90;;;;;;4842506;29;20081;-55
2022/10/13 04:21:13;;;;;;;18.63;13.90;;;10.50;99.90;;;;;;4840586;29;20400;-58
2022/10/13 04:23:40;;;;;;;23.17;14.57;;;10.50;99.90;;;;;;4838856;29;20084;-56
2022/10/13 04:26:17;;;;;;;24.40;15.90;;;10.50;99.90;;;;;;4844951;29;20472;-60
2022/10/13 04:28:45;;;;;;;28.60;14.55;;;10.50;99.90;;;;;;4840648;29;20137;-57
2022/10/13 04:31:12;;;;;;;20.08;13.57;;;10.50;99.90;;;;;;4839079;29;20057;-55
2022/10/13 04:33:39;;;;;;;18.20;13.57;;;10.40;99.90;;;;;;4839770;29;20127;-56
2022/10/13 04:36:09;;;;;;;25.02;15.95;;;10.50;99.90;;;;;;4843132;29;20347;-56
2022/10/13 04:38:36;;;;;;;26.30;14.35;;;10.40;99.90;;;;;;4840122;29;20136;-57
2022/10/13 04:41:04;;;;;;;22.58;13.85;;;10.50;99.90;;;;;;4840957;29;20128;-54
2022/10/13 04:43:32;;;;;;;21.85;13.27;;;10.40;99.90;;;;;;4842818;29;20728;-52
2022/10/13 04:46:00;;;;;;;23.00;14.48;;;10.40;99.90;;;;;;4837970;29;20054;-55
2022/10/13 04:48:27;;;;;;;31.50;17.08;;;10.40;99.90;;;;;;4835530;29;20572;-56
2022/10/13 04:50:59;;;;;;;24.95;14.60;;;10.30;99.90;;;;;;4839081;29;20140;-54
2022/10/13 04:53:28;;;;;;;27.13;14.57;;;10.30;99.90;;;;;;4837878;29;20348;-53
2022/10/13 04:56:03;;;;;;;21.38;13.95;;;10.20;99.90;;;;;;4837676;29;20068;-55
2022/10/13 04:58:31;;;;;;;21.02;13.93;;;10.20;99.90;;;;;;4839132;29;20042;-52
2022/10/13 05:01:00;;;;;;;20.10;13.52;;;10.20;99.90;;;;;;4838311;29;20040;-53
2022/10/13 05:03:27;;;;;;;30.35;15.88;;;10.20;99.90;;;;;;4835875;29;20240;-57
2022/10/13 05:05:54;;;;;;;34.00;15.80;;;10.20;99.90;;;;;;4834838;29;20038;-57
2022/10/13 05:08:21;;;;;;;24.52;15.95;;;10.10;99.90;;;;;;4840226;29;20391;-66
2022/10/13 05:10:54;;;;;;;;;;;10.10;99.90;;;;;;4833448;29;20412;-55
2022/10/13 05:13:21;;;;;;;26.23;16.13;;;10.10;99.90;;;;;;4836768;29;19932;-57
2022/10/13 05:15:49;;;;;;;23.23;14.32;;;10.10;99.90;;;;;;4836560;29;20621;-55
2022/10/13 05:18:20;;;;;;;22.25;13.68;;;10.10;99.90;;;;;;4840591;29;20057;-51
2022/10/13 05:20:47;;;;;;;31.77;17.65;;;10.10;99.90;;;;;;4837487;29;20055;-53
2022/10/13 05:23:14;;;;;;;;;;;10.10;99.90;;;;;;4840183;29;20536;-56
2022/10/13 05:25:41;;;;;;;28.50;16.67;;;10.00;99.90;;;;;;4841916;29;19932;-55
2022/10/13 05:28:11;;;;;;;24.25;16.42;;;10.10;99.90;;;;;;4839365;29;20186;-52
2022/10/13 05:30:38;;;;;;;25.00;15.45;;;10.00;99.90;;;;;;4836430;29;20049;-54
2022/10/13 05:33:05;;;;;;;29.85;17.95;;;10.00;99.90;;;;;;4838031;29;20049;-55
2022/10/13 05:35:32;;;;;;;23.48;15.75;;;10.00;99.90;;;;;;4836577;29;20045;-55
2022/10/13 05:37:58;;;;;;;19.42;13.70;;;10.00;99.90;;;;;;4840338;29;20045;-53
2022/10/13 05:40:25;;;;;;;19.70;12.85;;;9.90;99.90;;;;;;4839608;29;20453;-55
2022/10/13 05:42:59;;;;;;;22.73;12.90;;;9.90;99.90;;;;;;4838525;29;20049;-55
2022/10/13 05:45:28;;;;;;;21.02;13.32;;;9.90;99.90;;;;;;4839643;29;20041;-56
2022/10/13 05:47:55;;;;;;;25.05;14.85;;;9.80;99.90;;;;;;4836600;29;20515;-55
2022/10/13 05:50:21;;;;;;;;;;;9.80;99.90;;;;;;4839490;29;20484;-52
2022/10/13 05:52:49;;;;;;;23.70;13.27;;;9.70;99.90;;;;;;4841606;29;20518;-53
2022/10/13 05:55:17;;;;;;;20.70;13.85;;;9.70;99.90;;;;;;4839274;29;20511;-55
2022/10/13 05:57:48;;;;;;;20.95;14.13;;;9.60;99.90;;;;;;4839207;29;20467;-61
2022/10/13 06:00:17;;;;;;;18.75;11.77;;;9.60;99.90;;;;;;4824638;29;20045;-53
2022/10/13 06:02:53;;;;;;;27.40;14.73;;;9.60;99.90;;;;;;4835269;29;20041;-50
2022/10/13 06:05:24;;;;;;;23.67;15.05;;;9.50;99.90;;;;;;4830510;29;20591;-53
2022/10/13 06:07:53;;;;;;;17.83;12.73;;;9.50;99.90;;;;;;4835378;29;20045;-57
2022/10/13 06:10:19;;;;;;;18.17;12.30;;;9.50;99.90;;;;;;4836388;29;20057;-53
2022/10/13 06:12:46;;;;;;;;;;;9.50;99.90;;;;;;4836840;29;20556;-55
2022/10/13 06:15:13;;;;;;;19.05;11.13;;;9.40;99.90;;;;;;4842125;29;20354;-52
2022/10/13 06:17:39;;;;;;;16.25;10.93;;;9.50;99.90;;;;;;4840890;29;20083;-55
2022/10/13 06:20:07;;;;;;;;;;;9.50;99.90;;;;;;4841389;29;20053;-54
2022/10/13 06:22:35;;;;;;;26.05;12.30;;;9.50;99.90;;;;;;4840039;29;19936;-53
2022/10/13 06:25:03;;;;;;;20.75;12.68;;;9.60;99.90;;;;;;4839782;29;20657;-56
2022/10/13 06:27:30;;;;;;;19.77;12.35;;;9.60;99.90;;;;;;4834170;29;20176;-54
2022/10/13 06:29:58;;;;;;;20.67;12.68;;;9.70;99.90;;;;;;4840489;29;20062;-55
2022/10/13 06:32:24;;;;;;;;;;;9.70;99.90;;;;;;4835273;29;20113;-53
2022/10/13 06:34:51;;;;;;;19.40;12.23;;;9.80;99.90;;;;;;4834438;29;19928;-53
2022/10/13 06:37:18;;;;;;;19.88;14.02;;;9.90;99.90;;;;;;4833049;29;20303;-52
2022/10/13 06:39:52;;;;;;;18.48;12.48;;;10.00;99.90;;;;;;4841236;29;20413;-53
2022/10/13 06:42:18;;;;;;;19.80;11.93;;;10.10;99.90;;;;;;4833149;29;20314;-54
2022/10/13 06:44:55;;;;;;;19.38;12.50;;;10.30;99.90;;;;;;4833064;29;20046;-55
2022/10/13 06:47:21;;;;;;;21.40;14.05;;;10.70;99.90;;;;;;4834294;29;20509;-55
2022/10/13 06:49:48;;;;;;;;;;;10.90;99.90;;;;;;4837531;29;20051;-52
2022/10/13 06:52:15;;;;;;;24.97;15.17;;;11.20;99.90;;;;;;4834826;29;19936;-52
2022/10/13 06:54:43;;;;;;;27.20;18.02;;;11.50;99.90;;;;;;4837710;29;20361;-57
2022/10/13 06:57:11;;;;;;;35.42;16.20;;;11.70;99.90;;;;;;4838252;29;20412;-55
2022/10/13 06:59:37;;;;;;;28.00;13.45;;;12.00;99.90;;;;;;4837897;29;20618;-55
2022/10/13 07:02:04;;;;;;;23.58;12.18;;;12.10;99.90;;;;;;4838015;29;20478;-54
2022/10/13 07:04:31;;;;;;;25.95;11.98;;;12.30;99.90;;;;;;4833780;29;20049;-55
2022/10/13 07:06:58;;;;;;;15.77;11.20;;;12.40;99.90;;;;;;4833426;29;20310;-55
2022/10/13 07:09:24;;;;;;;23.48;10.43;;;12.50;99.90;;;;;;4835649;29;20049;-54
2022/10/13 07:11:51;;;;;;;;;;;12.50;99.90;;;;;;4836163;29;20440;-55
2022/10/13 07:14:18;;;;;;;21.75;11.18;;;12.60;99.90;;;;;;4832223;29;20394;-52
2022/10/13 07:16:47;;;;;;;16.67;9.80;;;12.70;99.90;;;;;;4833683;29;20140;-53
2022/10/13 07:19:13;;;;;;;18.30;12.60;;;12.80;99.90;;;;;;4834790;29;20053;-53
2022/10/13 07:21:41;;;;;;;15.70;9.05;;;12.90;99.90;;;;;;4831830;29;20624;-54
2022/10/13 07:24:10;;;;;;;12.57;8.27;;;13.00;99.90;;;;;;4836920;29;20132;-52
2022/10/13 07:26:37;;;;;;;15.23;9.57;;;13.10;99.90;;;;;;4836795;29;20045;-52
2022/10/13 07:29:04;;;;;;;17.98;8.45;;;13.10;99.90;;;;;;4836174;29;20053;-55
2022/10/13 07:31:30;;;;;;;13.80;9.77;;;13.20;99.90;;;;;;4839641;29;20417;-54
2022/10/13 07:33:58;;;;;;;15.20;9.10;;;13.40;99.90;;;;;;4836783;29;20049;-54
2022/10/13 07:36:27;;;;;;;11.27;7.93;;;13.60;99.90;;;;;;4837961;29;20122;-53
2022/10/13 07:38:53;;;;;;;14.02;7.75;;;13.60;99.90;;;;;;4837537;29;20793;-54
2022/10/13 07:41:20;;;;;;;19.23;7.95;;;13.60;99.90;;;;;;4836729;29;20037;-56
2022/10/13 07:43:47;;;;;;;;;;;13.60;99.90;;;;;;4837978;29;20931;-57
2022/10/13 07:46:14;;;;;;;11.32;7.97;;;13.50;99.90;;;;;;4836249;29;19927;-52
2022/10/13 07:48:41;;;;;;;16.13;7.97;;;13.40;99.90;;;;;;4833518;29;20066;-56
2022/10/13 07:51:09;;;;;;;;;;;13.40;99.90;;;;;;4837874;29;20038;-52
2022/10/13 07:53:36;;;;;;;19.00;8.93;;;13.40;99.90;;;;;;4833861;29;20327;-55
2022/10/13 07:56:06;;;;;;;11.57;8.10;;;13.50;99.90;;;;;;4835159;29;20533;-55
2022/10/13 07:58:36;;;;;;;16.90;10.43;;;13.60;99.90;;;;;;4838099;29;20058;-55
2022/10/13 08:01:03;;;;;;;18.77;9.50;;;13.80;99.90;;;;;;4841818;29;20106;-56
2022/10/13 08:03:31;;;;;;;15.07;10.40;;;14.10;99.90;;;;;;4837310;29;20041;-53
2022/10/13 08:05:59;;;;;;;17.08;11.25;;;14.40;99.90;;;;;;4835307;29;20382;-53
2022/10/13 08:08:27;;;;;;;18.90;12.75;;;14.70;99.90;;;;;;4833234;29;20082;-55
2022/10/13 08:10:54;;;;;;;23.00;12.98;;;14.90;99.90;;;;;;4831713;29;20058;-60
2022/10/13 08:13:22;;;;;;;23.27;11.60;;;15.20;99.90;;;;;;4832766;29;20070;-53
2022/10/13 08:15:49;;;;;;;22.27;12.25;;;15.50;99.90;;;;;;4836161;29;20078;-54
2022/10/13 08:18:15;;;;;;;;;;;15.70;99.90;;;;;;4835852;29;20053;-54
2022/10/13 08:20:44;;;;;;;25.38;15.02;;;15.90;99.90;;;;;;4837717;29;19956;-55
2022/10/13 08:23:12;;;;;;;20.17;11.85;;;16.00;99.90;;;;;;4838978;29;20131;-52
2022/10/13 08:25:47;;;;;;;19.63;13.48;;;16.20;99.90;;;;;;4836631;29;20378;-55
2022/10/13 08:28:16;;;;;;;23.73;15.38;;;16.40;99.90;;;;;;4840321;29;20057;-52
2022/10/13 08:30:43;;;;;;;27.02;12.90;;;16.60;99.90;;;;;;4844144;29;20049;-52
2022/10/13 08:33:11;;;;;;;20.83;14.57;;;16.80;99.90;;;;;;4840851;29;20057;-53
2022/10/13 08:35:38;;;;;;;23.02;14.93;;;16.90;99.90;;;;;;4841036;29;20432;-54
2022/10/13 08:38:06;;;;;;;22.63;15.82;;;16.90;99.90;;;;;;4842329;29;20053;-53
2022/10/13 08:40:33;;;;;;;25.20;16.92;;;16.70;99.90;;;;;;4838130;29;20149;-55
2022/10/13 08:43:07;;;;;;;25.00;14.55;;;16.70;99.90;;;;;;4839566;29;20045;-54
2022/10/13 08:45:35;;;;;;;23.02;15.70;;;16.60;99.90;;;;;;4840933;29;20138;-54
2022/10/13 08:48:24;;;;;;;21.58;13.45;;;16.60;99.90;;;;;;4842298;29;20077;-53
2022/10/13 08:50:55;;;;;;;39.15;15.88;;;16.60;99.90;;;;;;4841209;29;20092;-55
2022/10/13 08:53:29;;;;;;;24.15;15.18;;;16.50;99.90;;;;;;4831955;29;20042;-56
2022/10/13 08:56:16;;;;;;;31.80;16.75;;;16.40;99.90;;;;;;4846805;29;20049;-53
2022/10/13 08:58:46;;;;;;;25.85;14.07;;;16.30;99.90;;;;;;4832488;29;20062;-51
2022/10/13 09:01:37;;;;;;;23.70;16.10;;;16.30;99.90;;;;;;4844067;29;20053;-54
2022/10/13 09:04:31;;;;;;;24.38;15.27;;;16.20;99.90;;;;;;4841226;29;20045;-53
2022/10/13 09:07:09;;;;;;;26.23;14.50;;;16.20;99.90;;;;;;4837467;29;20049;-55
2022/10/13 09:09:36;;;;;;;29.23;14.40;;;16.10;99.90;;;;;;4832459;29;20072;-53
2022/10/13 09:12:04;;;;;;;25.77;15.82;;;16.10;99.90;;;;;;4843561;29;20517;-54
2022/10/13 09:14:34;;;;;;;27.85;16.00;;;16.10;99.90;;;;;;4845329;29;20337;-53
2022/10/13 09:17:15;;;;;;;23.55;14.50;;;16.10;99.90;;;;;;4833650;29;20049;-53
2022/10/13 09:19:43;;;;;;;22.52;14.32;;;16.10;99.90;;;;;;4835596;29;20547;-54
2022/10/13 09:22:25;;;;;;;20.35;13.30;;;16.10;99.90;;;;;;4840555;29;20052;-52
2022/10/13 09:25:06;;;;;;;25.17;14.32;;;16.10;99.90;;;;;;4838320;29;20049;-53
2022/10/13 09:27:56;;;;;;;22.35;14.10;;;16.20;99.90;;;;;;4845019;29;20205;-53
2022/10/13 09:30:34;;;;;;;27.00;15.38;;;16.40;99.90;;;;;;4837409;29;20125;-53
2022/10/13 09:33:08;;;;;;;25.30;13.63;;;16.60;99.90;;;;;;4840965;29;20048;-54
2022/10/13 09:35:35;;;;;;;28.10;15.25;;;16.70;99.90;;;;;;4840335;29;20214;-56
2022/10/13 09:38:13;;;;;;;19.58;12.20;;;16.90;99.90;;;;;;4834461;29;20050;-54
2022/10/13 09:40:42;;;;;;;26.58;14.07;;;17.10;99.90;;;;;;4842840;29;20616;-53
2022/10/13 09:43:34;;;;;;;21.45;13.50;;;17.20;99.90;;;;;;4839358;29;20049;-56
2022/10/13 09:46:10;;;;;;;25.83;14.98;;;17.40;99.90;;;;;;4834610;29;20046;-55
2022/10/13 09:48:41;;;;;;;29.27;15.17;;;17.60;99.90;;;;;;4837820;29;20448;-53
2022/10/13 09:51:32;;;;;;;23.23;13.73;;;17.80;99.90;;;;;;4839117;29;20291;-55
2022/10/13 09:54:04;;;;;;;23.55;12.40;;;18.00;99.90;;;;;;4837854;29;20060;-54
2022/10/13 09:56:47;;;;;;;22.27;12.35;;;18.20;99.90;;;;;;4838744;29;20074;-54
2022/10/13 09:59:20;;;;;;;23.40;13.30;;;18.40;99.90;;;;;;4845651;29;20049;-55
2022/10/13 10:01:51;;;;;;;21.17;13.02;;;18.70;99.90;;;;;;4840916;29;20144;-57
2022/10/13 10:04:29;;;;;;;19.55;12.65;;;19.00;99.90;;;;;;4836615;29;20055;-52
2022/10/13 10:06:56;;;;;;;22.13;11.15;;;19.30;99.90;;;;;;4836499;29;20049;-53
2022/10/13 10:09:37;;;;;;;24.98;11.23;;;19.40;99.90;;;;;;4837579;29;20037;-53
2022/10/13 10:12:11;;;;;;;20.92;10.40;;;19.30;99.90;;;;;;4838494;29;20589;-55
2022/10/13 10:14:38;;;;;;;18.50;9.55;;;19.20;99.90;;;;;;4832059;29;20140;-55
2022/10/13 10:17:56;;;;;;;13.57;8.90;;;19.00;99.90;;;;;;4840497;29;20047;-54
2022/10/13 10:20:49;;;;;;;19.52;10.15;;;18.70;99.90;;;;;;4815197;29;20058;-54
2022/10/13 10:23:54;;;;;;;23.70;10.65;;;18.40;99.90;;;;;;4835291;29;20148;-53
2022/10/13 10:26:33;;;;;;;15.23;9.75;;;18.10;99.90;;;;;;4833894;29;20534;-55
2022/10/13 10:29:05;;;;;;;16.00;9.90;;;18.00;99.90;;;;;;4839598;29;20088;-55
2022/10/13 10:31:47;;;;;;;17.25;10.10;;;17.80;99.90;;;;;;4839468;29;20045;-56
2022/10/13 10:34:34;;;;;;;16.08;9.48;;;17.60;99.90;;;;;;4837740;29;20106;-53
2022/10/13 10:37:13;;;;;;;22.75;10.48;;;17.40;99.90;;;;;;4838297;29;20390;-56
2022/10/13 10:39:48;;;;;;;23.55;10.65;;;17.30;99.90;;;;;;4838336;29;20045;-55
2022/10/13 10:42:50;;;;;;;19.10;9.90;;;17.30;99.90;;;;;;4840879;29;20392;-52
2022/10/13 10:45:25;;;;;;;17.17;10.02;;;17.20;99.90;;;;;;4836078;29;20540;-58
2022/10/13 10:48:00;;;;;;;15.95;9.63;;;17.10;99.90;;;;;;4843789;29;20156;-61
2022/10/13 10:50:29;;;;;;;26.52;11.57;;;17.10;99.90;;;;;;4840634;29;20072;-55
2022/10/13 10:53:06;;;;;;;16.42;10.32;;;17.10;99.90;;;;;;4834441;29;20068;-56
2022/10/13 10:55:36;;;;;;;23.17;11.00;;;17.10;99.90;;;;;;4833249;29;20057;-57
2022/10/13 10:58:32;;;;;;;23.77;10.80;;;17.00;99.90;;;;;;4832423;29;20054;-55
2022/10/13 11:01:13;;;;;;;19.45;10.68;;;17.00;99.90;;;;;;4837659;29;20834;-54
2022/10/13 11:03:56;;;;;;;19.27;11.35;;;17.00;99.90;;;;;;4836450;29;20148;-55
2022/10/13 11:06:25;;;;;;;17.00;9.95;;;17.10;99.90;;;;;;4836911;29;20054;-56
2022/10/13 11:08:54;;;;;;;18.27;10.18;;;17.10;99.90;;;;;;4834164;29;20122;-55
2022/10/13 11:11:32;;;;;;;27.77;12.25;;;17.20;99.90;;;;;;4836426;29;20531;-53
2022/10/13 11:14:07;;;;;;;14.60;8.65;;;17.30;99.90;;;;;;4832895;29;20069;-54
2022/10/13 11:16:36;;;;;;;;;;;17.40;99.90;;;;;;4834852;29;20042;-54
2022/10/13 11:19:34;;;;;;;21.60;10.15;;;17.50;99.90;;;;;;4835618;29;19932;-56
2022/10/13 11:22:00;;;;;;;18.60;10.52;;;17.60;99.90;;;;;;4835953;29;20395;-56
2022/10/13 11:24:38;;;;;;;20.25;10.65;;;17.60;99.90;;;;;;4844078;29;20149;-52
2022/10/13 11:27:08;;;;;;;20.02;9.77;;;17.60;99.90;;;;;;4840161;29;20500;-56
2022/10/13 11:29:58;;;;;;;19.55;10.45;;;17.70;99.90;;;;;;4838169;29;20145;-52
2022/10/13 11:32:25;;;;;;;17.23;9.90;;;17.70;99.90;;;;;;4836720;29;20065;-54
2022/10/13 11:34:59;;;;;;;16.90;8.73;;;17.80;99.90;;;;;;4831094;29;20348;-56
2022/10/13 11:37:45;;;;;;;15.07;9.70;;;17.80;99.90;;;;;;4834793;29;20051;-57
2022/10/13 11:40:39;;;;;;;20.20;10.02;;;17.90;99.90;;;;;;4843810;29;20365;-54
2022/10/13 11:43:47;;;;;;;24.67;9.35;;;18.10;99.90;;;;;;4833763;29;20473;-53
2022/10/13 11:46:23;;;;;;;18.80;9.30;;;18.20;99.90;;;;;;4837000;29;20056;-54
2022/10/13 11:49:38;;;;;;;15.02;7.68;;;18.30;99.90;;;;;;4834545;29;20069;-55
2022/10/13 11:52:11;;;;;;;17.42;8.07;;;18.30;99.90;;;;;;4830998;29;20339;-56
2022/10/13 11:54:56;;;;;;;14.20;8.13;;;18.40;99.90;;;;;;4837004;29;20608;-54
2022/10/13 11:57:25;;;;;;;13.10;7.40;;;18.40;99.90;;;;;;4837539;29;20041;-55
2022/10/13 11:59:54;;;;;;;19.42;7.80;;;18.40;99.90;;;;;;4842003;29;20505;-52
2022/10/13 12:02:27;;;;;;;15.60;9.15;;;18.50;99.90;;;;;;4838188;29;20045;-53
2022/10/13 12:05:00;;;;;;;17.20;9.35;;;18.60;99.90;;;;;;4836350;29;20147;-54
2022/10/13 12:07:38;;;;;;;15.80;7.93;;;18.60;99.90;;;;;;4836090;29;20482;-54
2022/10/13 12:10:15;;;;;;;14.85;7.93;;;18.60;99.90;;;;;;4839141;29;20332;-53
2022/10/13 12:12:48;;;;;;;15.23;8.20;;;18.60;99.90;;;;;;4840349;29;20268;-55
2022/10/13 12:15:42;;;;;;;19.67;8.60;;;18.70;99.90;;;;;;4834621;29;20053;-61
2022/10/13 12:18:24;;;;;;;11.48;8.40;;;18.70;99.90;;;;;;4833838;29;20057;-54
2022/10/13 12:20:56;;;;;;;15.77;10.90;;;18.70;99.90;;;;;;4837417;29;20503;-54
2022/10/13 12:23:24;;;;;;;15.63;8.68;;;18.60;99.90;;;;;;4838827;29;20045;-53
2022/10/13 12:25:57;;;;;;;21.65;11.48;;;18.60;99.90;;;;;;4835505;29;20049;-56
2022/10/13 12:28:27;;;;;;;18.73;10.60;;;18.60;99.90;;;;;;4837441;29;20382;-57
2022/10/13 12:30:57;;;;;;;28.05;12.65;;;18.70;99.90;;;;;;4841591;29;20049;-54
2022/10/13 12:33:34;;;;;;;21.08;11.45;;;18.70;99.90;;;;;;4843378;29;20266;-58
2022/10/13 12:36:18;;;;;;;20.40;12.23;;;18.70;99.90;;;;;;4842422;29;20053;-55
2022/10/13 12:38:51;;;;;;;22.10;10.98;;;18.80;99.90;;;;;;4840824;29;20505;-56
2022/10/13 12:41:24;;;;;;;25.50;12.77;;;18.80;99.90;;;;;;4839384;29;20412;-54
2022/10/13 12:43:52;;;;;;;23.65;11.20;;;18.80;99.90;;;;;;4839212;29;20033;-54
2022/10/13 12:46:34;;;;;;;18.35;11.75;;;18.70;99.90;;;;;;4838284;29;20440;-51
2022/10/13 12:49:14;;;;;;;19.75;11.77;;;18.50;99.90;;;;;;4839094;29;20198;-54
2022/10/13 12:51:44;;;;;;;18.33;10.10;;;18.40;99.90;;;;;;4844376;29;20045;-57
2022/10/13 12:54:21;;;;;;;17.00;10.30;;;18.30;99.90;;;;;;4838145;29;20049;-58
2022/10/13 12:56:49;;;;;;;21.08;11.95;;;18.10;99.90;;;;;;4821752;29;20483;-53
2022/10/13 12:59:23;;;;;;;15.90;9.63;;;18.00;99.90;;;;;;4840805;29;20105;-53
2022/10/13 13:02:15;;;;;;;15.73;10.35;;;18.00;99.90;;;;;;4837483;29;20053;-55